Detall de PIREP

Printer-friendly versionPDF version

[2013/10/26 15:26:00]
Flight IATA:CT1001
Pilot Number:026
Company ICAO:CAT
Aircraft Type:F50/A
PAX:50
Aircraft Registration:PAOB
Departing Airport: LEIB
Destination Airport: LEPA
Alternate Airport:LEMH
Online: VATSIM
Route:DCT LAMPA
Flight Level:F080
No Slew and time accel
No pause
Crash detect
Detect pilot in Cockpit between each 30 and 45 minutes
15:26 Zero fuel Weight: 39184 Lbs, Fuel Weight: 2998 Lbs
15:26 VATSIM:LEIB 261500Z 32009KT 9999 SCT024 25/20 Q1016 NOSIG
15:26 VATSIM:LEPA 261500Z 22004KT 150V280 9000 NSC 26/21 Q1015 NOSIG
15:27 VOICE CATALONIAN / MEDITERRANEAN ODYSSEY LEG7
15:38 Parking Brakes off
15:46 Take-off
15:46 Take off Weight: 42052 Lbs
15:46 Wind: 292º @ 006 Knots Heading: 243º
15:46 POS N38º 52´ 08´´ E001º 21´ 51´´
15:47 Gear Up: 130 Knots
15:47 Flaps:3 at 130 Knots
15:47 Flaps:2 at 108 Knots
15:47 Flaps:1 at 135 Knots
15:49 Flaps:0 at 154 Knots
15:51 TOC
15:51 Fuel Weight: 2597 Lb
16:02 Wind:275º@012 Knots Heading: 041º Ground Speed: 258 Knots Altitude 8100 ft
16:11 TOD
16:11 Fuel Weight: 1968 Lb
16:17 Wind:248º@008 Knots Heading: 011º Ground Speed: 163 Knots Altitude 2408 ft
16:21 Gear Down: 145 Knots
16:21 Flaps:1 at 145 Knots
16:23 Flaps:2 at 118 Knots
16:23 Flaps:3 at 113 Knots
16:24 TouchDown:Rate -118 ft/min Speed: 93 Knots
16:24 VATSIM:LEPA 261600Z 25008KT 9000 NSC 25/21 Q1016 NOSIG
16:24 Land
16:24 Wind:252º@008 Knots
16:24 Heading: 237º
16:24 Flight Duration: 00:37
16:24 Landing Weight: 40962 Lbs
16:24 POS N39º 33´ 01´´ E002º 45´ 02´´
16:30 Parking brakes on
16:30 Block to Block Duration: 00:52
16:30 Final Fuel: 1759 Lbls
16:30 Spent Fuel: 1238 Lbls
16:30 Flight Length: 136 NM
16:30 TOD Land Length: 38 NM

Exportar CSV

Powered by Drupal - Modified by Danger4k